Home   Weather   Mark Point   Past weeks
Flag for USA

Past Weather in Mark Point, Utah, USA — Yesterday and Last 2 Weeks

Currently: 79 °F. Partly cloudy. (Weather station: Colorado City Municipal Airport, USA). See more current weather

Past Weather in Mark Point — Graph

°F

Mark Point Temperature Yesterday

Maximum temperature yesterday: 86 °F (at 3:15 pm)
Minimum temperature yesterday: 54 °F (at 4:55 am)
Average temperature yesterday: 70 °F

High & Low Weather Summary for the Past Weeks

 TemperatureHumidityPressure
High95 °F (Sep 13, 2:15 pm)100% (Sep 19, 1:35 am)30.46 "Hg (Sep 19, 1:35 am)
Low41 °F (Sep 21, 4:55 am)10% (Sep 14, 4:15 pm)29.98 "Hg (Sep 16, 4:35 pm)
Average70 °F33%30.16 "Hg
* Reported Sep 12 7:15 pm — Sep 27 7:35 pm, Mark Point. Weather by CustomWeather, © 2021

Note: Actual official high and low records may vary slightly from our data, if they occured in-between our weather recording intervals... More about our weather records

Mark Point Weather History for the Previous 24 Hours

Scroll right to see more
 ConditionsComfort  
Time TempWeatherWind HumidityBarometerVisibility
7:35 pm
Mon, Sep 27
81 °FOvercast.5 mph34%30.03 "Hg10 mi
7:15 pm82 °FMostly cloudy.5 mph32%30.02 "Hg10 mi
6:55 pm82 °FBroken clouds.10 mph30%30.01 "Hg10 mi
6:15 pm82 °FScattered clouds.12 mph30%30.01 "Hg10 mi
5:55 pm86 °FScattered clouds.12 mph29%30.01 "Hg10 mi
5:35 pm86 °FSunny.13 mph25%30.01 "Hg10 mi
5:15 pm86 °FSunny.9 mph25%30.02 "Hg10 mi
4:55 pm86 °FSunny.9 mph25%30.03 "Hg10 mi
4:35 pm86 °FSunny.9 mph25%30.03 "Hg10 mi
4:15 pm86 °FSunny.10 mph25%30.03 "Hg10 mi
3:55 pm86 °FSunny.9 mph25%30.04 "Hg10 mi
3:15 pm84 °FSunny.13 mph29%30.05 "Hg10 mi
2:55 pm82 °FSunny.8 mph32%30.07 "Hg10 mi
2:35 pm84 °FSunny.9 mph31%30.07 "Hg10 mi
2:15 pm82 °FSunny.7 mph32%30.08 "Hg10 mi
1:55 pm82 °FSunny.3 mph32%30.09 "Hg10 mi
1:35 pm81 °FSunny.3 mph34%30.09 "Hg10 mi
1:15 pm82 °FSunny.6 mph32%30.11 "Hg10 mi
12:55 pm81 °FSunny.No wind34%30.11 "Hg10 mi
12:35 pm79 °FSunny.6 mph37%30.11 "Hg10 mi
12:15 pm79 °FSunny.6 mph39%30.12 "Hg10 mi
11:55 am79 °FSunny.5 mph39%30.12 "Hg10 mi
11:35 am77 °FSunny.No wind42%30.12 "Hg10 mi
11:15 am77 °FSunny.3 mph42%30.13 "Hg10 mi
10:55 am75 °FSunny.5 mph47%30.13 "Hg10 mi
10:35 am73 °FSunny.No wind50%30.13 "Hg10 mi
10:15 am73 °FSunny.No wind50%30.14 "Hg10 mi
9:55 am72 °FSunny.No wind53%30.15 "Hg10 mi
9:35 am70 °FSunny.10 mph53%30.14 "Hg10 mi
9:15 am68 °FSunny.14 mph53%30.14 "Hg10 mi
8:55 am63 °FSunny.7 mph56%30.13 "Hg10 mi
8:15 am55 °FSunny.8 mph67%30.13 "Hg10 mi
7:55 am52 °FSunny.6 mph72%30.13 "Hg10 mi
7:35 am52 °FSunny.3 mph72%30.12 "Hg10 mi
7:15 am52 °FClear.3 mph72%30.12 "Hg10 mi
6:55 am54 °FClear.3 mph67%30.11 "Hg10 mi
6:35 am54 °FClear.5 mph63%30.11 "Hg10 mi
6:15 am54 °FClear.No wind63%30.11 "Hg10 mi
5:55 am54 °FClear.5 mph67%30.11 "Hg10 mi
5:15 am59 °FClear.7 mph55%30.11 "Hg10 mi
4:55 am59 °FClear.3 mph55%30.11 "Hg10 mi
4:35 am59 °FClear.3 mph55%30.12 "Hg10 mi
3:55 am55 °FClear.3 mph63%30.12 "Hg10 mi
3:15 am55 °FClear.7 mph63%30.12 "Hg10 mi
2:55 am54 °FClear.7 mph67%30.13 "Hg10 mi
2:35 am55 °FClear.5 mph59%30.13 "Hg10 mi
2:15 am55 °FClear.No wind63%30.13 "Hg10 mi
1:55 am59 °FClear.5 mph59%30.12 "Hg10 mi
1:35 am59 °FClear.13 mph55%30.12 "Hg10 mi
1:15 am59 °FClear.9 mph55%30.12 "Hg10 mi
12:55 am59 °FClear.15 mph55%30.12 "Hg10 mi
12:35 am61 °FClear.10 mph52%30.12 "Hg10 mi
12:15 am64 °FClear.10 mph49%30.12 "Hg10 mi
11:55 pm
Sun, Sep 26
61 °FClear.12 mph55%30.12 "Hg10 mi
11:35 pm63 °FClear.13 mph49%30.12 "Hg10 mi
11:15 pm63 °FClear.10 mph49%30.12 "Hg10 mi
10:55 pm68 °FClear.No wind43%30.11 "Hg10 mi
10:35 pm70 °FClear.No wind38%30.11 "Hg10 mi
10:15 pm72 °FClear.No wind36%30.11 "Hg10 mi
9:55 pm70 °FClear.No wind38%30.11 "Hg10 mi
9:35 pm72 °FClear.7 mph36%30.11 "Hg10 mi
9:15 pm72 °FClear.No wind36%30.09 "Hg10 mi
8:55 pm75 °FClear.6 mph31%30.09 "Hg10 mi
8:35 pm75 °FClear.3 mph31%30.09 "Hg10 mi
8:15 pm77 °FClear.6 mph30%30.08 "Hg10 mi
Weather by CustomWeather, © 2021

See weather overview